Time;durP1;ratioP1;P1;durP2;ratioP2;P2;SDS_P1;SDS_P2;PMS_P1;PMS_P2;Temp;Humidity;BMP_temperature;BMP_pressure;BME280_temperature;BME280_humidity;BME280_pressure;Samples;Min_cycle;Max_cycle;Signal;HPM_P1;HPM_P2
2022/11/24 00:01:08;;;;;;;;;;;22.00;67.00;;;;;;1537875;75;1912;-65
2022/11/24 00:03:10;;;;;;;;;;;21.90;67.10;;;;;;1539388;75;956;-65
2022/11/24 00:05:12;;;;;;;;;;;22.00;67.20;;;;;;1547288;75;734;-66
2022/11/24 00:07:14;;;;;;;;;;;22.00;67.00;;;;;;1538520;75;597;-65
2022/11/24 00:09:16;;;;;;;;;;;22.00;67.00;;;;;;1540018;75;1196;-66
2022/11/24 00:11:19;;;;;;;;;;;22.00;67.10;;;;;;1540669;75;665;-65
2022/11/24 00:13:21;;;;;;;;;;;22.00;66.90;;;;;;1537048;75;1118;-65
2022/11/24 00:15:23;;;;;;;;;;;22.00;66.80;;;;;;1540225;75;720;-65
2022/11/24 00:17:25;;;;;;;;;;;22.10;66.70;;;;;;1539751;75;659;-65
2022/11/24 00:19:27;;;;;;;;;;;22.10;66.60;;;;;;1546311;75;1070;-66
2022/11/24 00:21:29;;;;;;;;;;;22.10;66.70;;;;;;1543414;76;1943;-65
2022/11/24 00:23:31;;;;;;;;;;;22.10;66.70;;;;;;1544041;75;799;-65
2022/11/24 00:25:32;;;;;;;;;;;22.10;66.60;;;;;;1535419;75;765;-65
2022/11/24 00:27:34;;;;;;;;;;;22.00;66.80;;;;;;1533408;75;665;-65
2022/11/24 00:29:36;;;;;;;;;;;22.00;66.90;;;;;;1538766;75;1118;-67
2022/11/24 00:31:39;;;;;;;;;;;22.00;67.10;;;;;;1536758;76;723;-65
2022/11/24 00:33:41;;;;;;;;;;;22.10;66.80;;;;;;1545209;75;701;-65
2022/11/24 00:35:43;;;;;;;;;;;22.10;66.40;;;;;;1545020;75;673;-65
2022/11/24 00:37:44;;;;;;;;;;;22.10;66.20;;;;;;1541745;76;1505;-66
2022/11/24 00:39:46;;;;;;;;;;;22.10;66.20;;;;;;1544229;75;1164;-65
2022/11/24 00:41:48;;;;;;;;;;;22.10;66.00;;;;;;1542307;75;1924;-66
2022/11/24 00:43:50;;;;;;;;;;;22.20;66.00;;;;;;1532108;75;744;-66
2022/11/24 00:45:52;;;;;;;;;;;22.20;65.90;;;;;;1545394;75;684;-67
2022/11/24 00:47:54;;;;;;;;;;;22.10;65.90;;;;;;1551307;75;643;-66
2022/11/24 00:49:56;;;;;;;;;;;22.10;65.90;;;;;;1532064;77;1162;-65
2022/11/24 00:51:58;;;;;;;;;;;22.10;65.90;;;;;;1542811;75;615;-65
2022/11/24 00:54:00;;;;;;;;;;;22.10;66.00;;;;;;1541072;75;672;-66
2022/11/24 00:56:06;;;;;;;;;;;22.10;66.00;;;;;;1543444;75;675;-66
2022/11/24 00:58:05;;;;;;;;;;;22.10;65.90;;;;;;1542613;75;990;-66
2022/11/24 01:00:08;;;;;;;;;;;22.10;65.90;;;;;;1544555;75;1952;-66
2022/11/24 01:02:09;;;;;;;;;;;22.10;65.80;;;;;;1533824;75;655;-66
2022/11/24 01:04:11;;;;;;;;;;;22.10;65.90;;;;;;1532248;75;733;-66
2022/11/24 01:06:15;;;;;;;;;;;22.10;66.00;;;;;;1535834;75;725;-66
2022/11/24 01:08:17;;;;;;;;;;;22.10;65.90;;;;;;1551396;76;2011;-66
2022/11/24 01:10:19;;;;;;;;;;;22.10;65.90;;;;;;1543727;75;1181;-65
2022/11/24 01:12:20;;;;;;;;;;;22.00;65.90;;;;;;1542065;75;699;-66
2022/11/24 01:14:23;;;;;;;;;;;22.00;66.10;;;;;;1545021;77;697;-66
2022/11/24 01:16:25;;;;;;;;;;;22.00;66.10;;;;;;1542092;75;679;-65
2022/11/24 01:18:27;;;;;;;;;;;22.10;66.00;;;;;;1528353;75;658;-66
2022/11/24 01:20:29;;;;;;;;;;;22.10;66.00;;;;;;1540230;72;229800;-69
2022/11/24 01:22:31;;;;;;;;;;;22.10;66.20;;;;;;1541784;75;712;-69
2022/11/24 01:24:33;;;;;;;;;;;22.10;66.10;;;;;;1550114;76;773;-68
2022/11/24 01:26:35;;;;;;;;;;;22.00;66.10;;;;;;1545278;76;679;-68
2022/11/24 01:28:37;;;;;;;;;;;22.00;66.50;;;;;;1549586;76;657;-69
2022/11/24 01:30:39;;;;;;;;;;;22.00;66.50;;;;;;1550606;75;1175;-67
2022/11/24 01:32:41;;;;;;;;;;;22.00;66.40;;;;;;1543121;75;753;-68
2022/11/24 01:34:43;;;;;;;;;;;22.00;66.40;;;;;;1545231;75;1458;-69
2022/11/24 01:36:45;;;;;;;;;;;22.00;66.50;;;;;;1545462;75;660;-68
2022/11/24 01:38:46;;;;;;;;;;;22.00;66.50;;;;;;1542736;75;672;-70
2022/11/24 01:40:48;;;;;;;;;;;22.00;66.60;;;;;;1527962;75;1993;-68
2022/11/24 01:42:51;;;;;;;;;;;22.00;66.80;;;;;;1545372;76;687;-69
2022/11/24 01:45:10;;;;;;;;;;;22.00;66.50;;;;;;1528306;75;730;-68
2022/11/24 01:47:32;;;;;;;;;;;22.10;66.90;;;;;;1537774;75;698;-68
2022/11/24 01:49:38;;;;;;;;;;;22.00;66.70;;;;;;1543668;75;1156;-69
2022/11/24 01:51:42;;;;;;;;;;;22.00;66.80;;;;;;1540579;76;673;-70
2022/11/24 01:53:45;;;;;;;;;;;22.00;67.00;;;;;;1507809;76;1672;-66
2022/11/24 01:55:47;;;;;;;;;;;21.90;67.20;;;;;;1533287;75;739;-69
2022/11/24 01:57:53;;;;;;;;;;;21.90;67.40;;;;;;1542903;76;663;-70
2022/11/24 01:59:57;;;;;;;;;;;21.90;67.30;;;;;;1543884;75;1165;-69
2022/11/24 02:01:59;;;;;;;;;;;21.90;66.90;;;;;;1543092;76;1932;-69
2022/11/24 02:04:01;;;;;;;;;;;21.90;67.00;;;;;;1531736;76;732;-67
2022/11/24 02:06:04;;;;;;;;;;;21.90;67.10;;;;;;1539668;75;696;-70
2022/11/24 02:08:06;;;;;;;;;;;21.90;66.90;;;;;;1542244;75;707;-69
2022/11/24 02:10:14;;;;;;;;;;;21.90;66.90;;;;;;1533098;75;1171;-69
2022/11/24 02:12:16;;;;;;;;;;;21.90;66.90;;;;;;1540666;75;678;-69
2022/11/24 02:14:18;;;;;;;;;;;21.90;67.10;;;;;;1546802;75;785;-70
2022/11/24 02:16:20;;;;;;;;;;;21.90;67.20;;;;;;1544711;75;681;-70
2022/11/24 02:18:22;;;;;;;;;;;21.90;67.20;;;;;;1539549;76;795;-69
2022/11/24 02:20:24;;;;;;;;;;;21.90;67.10;;;;;;1533399;75;1151;-69
2022/11/24 02:22:27;;;;;;;;;;;21.90;67.00;;;;;;1533586;75;1938;-69
2022/11/24 02:24:34;;;;;;;;;;;21.90;67.20;;;;;;1529576;75;755;-69
2022/11/24 02:26:37;;;;;;;;;;;21.80;67.30;;;;;;1546142;75;1971;-68
2022/11/24 02:28:39;;;;;;;;;;;21.80;67.30;;;;;;1547758;76;856;-68
2022/11/24 02:30:41;;;;;;;;;;;21.90;67.40;;;;;;1541936;75;1614;-71
2022/11/24 02:32:43;;;;;;;;;;;21.90;67.40;;;;;;1541424;76;659;-68
2022/11/24 02:34:45;;;;;;;;;;;21.90;67.40;;;;;;1534076;76;674;-68
2022/11/24 02:36:46;;;;;;;;;;;21.80;67.40;;;;;;1524623;76;708;-68
2022/11/24 02:38:48;;;;;;;;;;;21.90;67.30;;;;;;1545104;75;730;-68
2022/11/24 02:40:50;;;;;;;;;;;21.90;67.30;;;;;;1532298;76;1956;-68
2022/11/24 02:42:54;;;;;;;;;;;21.90;67.40;;;;;;1541954;75;680;-70
2022/11/24 02:44:56;;;;;;;;;;;21.80;67.30;;;;;;1544763;75;770;-66
2022/11/24 02:47:04;;;;;;;;;;;21.90;67.50;;;;;;1539168;75;771;-68
2022/11/24 02:49:06;;;;;;;;;;;21.80;67.40;;;;;;1540063;75;1139;-67
2022/11/24 02:51:08;;;;;;;;;;;21.80;67.40;;;;;;1530842;76;749;-68
2022/11/24 02:53:10;;;;;;;;;;;21.80;67.40;;;;;;1539076;75;660;-68
2022/11/24 02:55:11;;;;;;;;;;;21.80;67.50;;;;;;1541727;76;683;-68
2022/11/24 02:57:13;;;;;;;;;;;21.80;67.50;;;;;;1537661;75;716;-69
2022/11/24 02:59:15;;;;;;;;;;;21.80;67.60;;;;;;1512537;77;1158;-70
2022/11/24 03:01:17;;;;;;;;;;;21.80;67.40;;;;;;1541447;75;1987;-69
2022/11/24 03:03:20;;;;;;;;;;;21.90;67.40;;;;;;1534155;75;691;-69
2022/11/24 03:05:21;;;;;;;;;;;21.90;67.50;;;;;;1531041;75;695;-69
2022/11/24 03:07:23;;;;;;;;;;;21.80;67.50;;;;;;1538767;76;710;-69
2022/11/24 03:09:25;;;;;;;;;;;21.80;67.80;;;;;;1543633;76;1187;-69
2022/11/24 03:11:27;;;;;;;;;;;21.80;67.60;;;;;;1531949;75;750;-70
2022/11/24 03:13:29;;;;;;;;;;;21.80;67.80;;;;;;1545212;76;726;-68
2022/11/24 03:15:31;;;;;;;;;;;21.80;67.90;;;;;;1544851;75;567;-68
2022/11/24 03:17:33;;;;;;;;;;;21.80;67.80;;;;;;1502848;77;677;-70
2022/11/24 03:19:35;;;;;;;;;;;21.80;67.90;;;;;;1544842;75;1130;-69
2022/11/24 03:21:37;;;;;;;;;;;21.80;67.80;;;;;;1530704;75;1948;-67
2022/11/24 03:23:38;;;;;;;;;;;21.80;67.70;;;;;;1542458;75;674;-68
2022/11/24 03:25:40;;;;;;;;;;;21.80;67.70;;;;;;1542684;75;726;-70
2022/11/24 03:27:42;;;;;;;;;;;21.80;67.50;;;;;;1545975;75;1535;-69
2022/11/24 03:29:44;;;;;;;;;;;21.90;67.60;;;;;;1544373;75;1156;-69
2022/11/24 03:31:46;;;;;;;;;;;21.90;67.50;;;;;;1529584;76;623;-70
2022/11/24 03:33:48;;;;;;;;;;;21.90;67.30;;;;;;1533887;75;732;-69
2022/11/24 03:35:50;;;;;;;;;;;21.80;67.10;;;;;;1545966;76;689;-70
2022/11/24 03:37:52;;;;;;;;;;;21.80;67.20;;;;;;1543103;75;686;-69
2022/11/24 03:39:53;;;;;;;;;;;21.80;67.20;;;;;;1548614;76;1157;-67
2022/11/24 03:41:55;;;;;;;;;;;21.80;67.30;;;;;;1549997;75;1937;-69
2022/11/24 03:43:57;;;;;;;;;;;21.80;67.50;;;;;;1545527;75;815;-69
2022/11/24 03:45:59;;;;;;;;;;;21.80;67.50;;;;;;1537128;75;696;-70
2022/11/24 03:48:01;;;;;;;;;;;21.80;67.50;;;;;;1529547;76;770;-68
2022/11/24 03:50:03;;;;;;;;;;;21.80;67.60;;;;;;1531595;75;1059;-68
2022/11/24 03:52:05;;;;;;;;;;;21.70;67.60;;;;;;1526345;76;670;-68
2022/11/24 03:54:07;;;;;;;;;;;21.80;67.60;;;;;;1549835;75;820;-68
2022/11/24 03:56:09;;;;;;;;;;;21.70;67.60;;;;;;1541526;75;650;-68
2022/11/24 03:58:10;;;;;;;;;;;21.70;67.60;;;;;;1544473;75;748;-69
2022/11/24 04:00:13;;;;;;;;;;;21.80;67.70;;;;;;1530546;75;1141;-68
2022/11/24 04:02:14;;;;;;;;;;;21.80;67.70;;;;;;1532332;75;1921;-69
2022/11/24 04:04:16;;;;;;;;;;;21.80;67.80;;;;;;1541194;75;702;-70
2022/11/24 04:06:18;;;;;;;;;;;21.80;67.80;;;;;;1539867;75;684;-68
2022/11/24 04:08:20;;;;;;;;;;;21.70;67.90;;;;;;1531593;75;684;-68
2022/11/24 04:10:22;;;;;;;;;;;21.70;67.90;;;;;;1546534;75;1228;-68
2022/11/24 04:14:36;;;;;;;;;;;21.70;67.90;;;;;;1524542;75;1138;-69
2022/11/24 04:16:38;;;;;;;;;;;21.70;68.00;;;;;;1544676;75;670;-69
2022/11/24 04:18:42;;;;;;;;;;;21.70;68.10;;;;;;1543627;75;680;-69
2022/11/24 04:20:44;;;;;;;;;;;21.70;68.00;;;;;;1530215;76;1143;-71
2022/11/24 04:22:46;;;;;;;;;;;21.70;68.10;;;;;;1537223;75;1950;-69
2022/11/24 04:24:47;;;;;;;;;;;21.70;68.20;;;;;;1545534;76;743;-70
2022/11/24 04:26:49;;;;;;;;;;;21.70;68.10;;;;;;1545707;75;673;-68
2022/11/24 04:28:51;;;;;;;;;;;21.70;68.00;;;;;;1548694;75;696;-69
2022/11/24 04:30:53;;;;;;;;;;;21.70;68.10;;;;;;1544679;75;1141;-69
2022/11/24 04:32:56;;;;;;;;;;;21.70;68.10;;;;;;1544133;75;616;-70
2022/11/24 04:34:57;;;;;;;;;;;21.70;68.10;;;;;;1544672;76;743;-68
2022/11/24 04:36:59;;;;;;;;;;;21.70;67.80;;;;;;1540159;75;720;-69
2022/11/24 04:39:01;;;;;;;;;;;21.80;67.60;;;;;;1542771;75;666;-71
2022/11/24 04:41:03;;;;;;;;;;;21.80;67.50;;;;;;1543062;75;1216;-70
2022/11/24 04:43:05;;;;;;;;;;;21.80;67.50;;;;;;1536792;75;1928;-70
2022/11/24 04:45:07;;;;;;;;;;;21.80;67.40;;;;;;1544123;76;715;-66
2022/11/24 04:47:10;;;;;;;;;;;21.90;67.30;;;;;;1531828;75;695;-70
2022/11/24 04:49:12;;;;;;;;;;;21.90;67.20;;;;;;1546282;75;1747;-69
2022/11/24 04:51:14;;;;;;;;;;;22.00;67.10;;;;;;1545182;75;646;-69
2022/11/24 04:53:16;;;;;;;;;;;21.90;67.20;;;;;;1538160;76;697;-71
2022/11/24 04:55:18;;;;;;;;;;;21.90;67.10;;;;;;1531229;75;665;-70
2022/11/24 04:57:21;;;;;;;;;;;21.80;67.10;;;;;;1537900;75;689;-68
2022/11/24 04:59:23;;;;;;;;;;;21.90;67.10;;;;;;1538388;76;1159;-70
2022/11/24 05:01:25;;;;;;;;;;;21.80;67.10;;;;;;1553167;75;674;-69
2022/11/24 05:03:26;;;;;;;;;;;21.90;67.10;;;;;;1541567;75;1931;-69
2022/11/24 05:05:28;;;;;;;;;;;21.90;67.00;;;;;;1540628;75;653;-69
2022/11/24 05:07:30;;;;;;;;;;;21.90;67.00;;;;;;1531897;76;678;-69
2022/11/24 05:09:32;;;;;;;;;;;21.90;67.00;;;;;;1539035;76;1137;-69
2022/11/24 05:11:34;;;;;;;;;;;21.90;66.80;;;;;;1532324;76;1125;-67
2022/11/24 05:13:36;;;;;;;;;;;21.90;66.80;;;;;;1531395;75;713;-70
2022/11/24 05:15:38;;;;;;;;;;;21.90;66.90;;;;;;1539384;75;684;-69
2022/11/24 05:17:40;;;;;;;;;;;21.80;66.90;;;;;;1543758;75;773;-72
2022/11/24 05:19:42;;;;;;;;;;;21.90;67.00;;;;;;1538509;75;1576;-69
2022/11/24 05:21:44;;;;;;;;;;;21.80;67.10;;;;;;1545407;75;1921;-69
2022/11/24 05:23:46;;;;;;;;;;;21.80;67.20;;;;;;1547828;75;943;-69
2022/11/24 05:25:47;;;;;;;;;;;21.80;67.20;;;;;;1530962;75;687;-69
2022/11/24 05:27:49;;;;;;;;;;;21.80;67.20;;;;;;1544516;75;849;-68
2022/11/24 05:29:51;;;;;;;;;;;21.80;67.20;;;;;;1531823;75;1170;-70
2022/11/24 05:31:53;;;;;;;;;;;21.80;67.10;;;;;;1527380;75;753;-68
2022/11/24 05:33:55;;;;;;;;;;;21.80;66.90;;;;;;1533047;75;759;-69
2022/11/24 05:35:58;;;;;;;;;;;21.80;66.90;;;;;;1544727;75;807;-67
2022/11/24 05:38:00;;;;;;;;;;;21.80;66.90;;;;;;1544091;75;746;-69
2022/11/24 05:40:02;;;;;;;;;;;21.70;67.10;;;;;;1530950;75;1154;-68
2022/11/24 05:42:50;;;;;;;;;;;21.70;67.30;;;;;;1540922;76;1943;-69
2022/11/24 05:44:08;;;;;;;;;;;21.70;67.20;;;;;;1521540;76;1421;-69
2022/11/24 05:46:10;;;;;;;;;;;21.80;67.10;;;;;;1540394;75;645;-69
2022/11/24 05:48:13;;;;;;;;;;;21.80;67.10;;;;;;1527479;76;704;-67
2022/11/24 05:50:15;;;;;;;;;;;21.80;67.00;;;;;;1532141;75;1136;-68
2022/11/24 05:52:17;;;;;;;;;;;21.90;67.10;;;;;;1541378;76;685;-68
2022/11/24 05:54:19;;;;;;;;;;;21.90;67.10;;;;;;1541655;75;716;-69
2022/11/24 05:56:21;;;;;;;;;;;21.80;67.10;;;;;;1544882;75;674;-69
2022/11/24 05:58:23;;;;;;;;;;;21.80;67.20;;;;;;1537680;76;768;-68
2022/11/24 06:00:25;;;;;;;;;;;21.80;67.80;;;;;;1540696;75;1141;-69
2022/11/24 06:02:27;;;;;;;;;;;21.70;67.90;;;;;;1534831;75;1927;-70
2022/11/24 06:04:28;;;;;;;;;;;21.60;67.90;;;;;;1529397;75;739;-68
2022/11/24 06:06:30;;;;;;;;;;;21.60;68.00;;;;;;1531503;75;722;-68
2022/11/24 06:08:33;;;;;;;;;;;21.60;67.90;;;;;;1540945;75;702;-70
2022/11/24 06:10:35;;;;;;;;;;;21.70;67.70;;;;;;1533666;76;1105;-69
2022/11/24 06:12:36;;;;;;;;;;;21.80;67.40;;;;;;1512714;77;638;-69
2022/11/24 06:14:38;;;;;;;;;;;21.80;67.20;;;;;;1540887;76;1363;-67
2022/11/24 06:16:40;;;;;;;;;;;21.80;67.00;;;;;;1538800;76;691;-67
2022/11/24 06:18:42;;;;;;;;;;;21.80;66.90;;;;;;1535196;75;723;-67
2022/11/24 06:20:44;;;;;;;;;;;21.70;67.10;;;;;;1542462;75;1217;-67
2022/11/24 06:22:47;;;;;;;;;;;21.60;67.50;;;;;;1546010;75;1898;-67
2022/11/24 06:24:50;;;;;;;;;;;21.50;67.80;;;;;;1537843;75;693;-68
2022/11/24 06:26:51;;;;;;;;;;;21.50;68.30;;;;;;1540949;75;739;-67
2022/11/24 06:28:53;;;;;;;;;;;21.50;68.70;;;;;;1537238;76;744;-66
2022/11/24 06:30:57;;;;;;;;;;;21.50;68.90;;;;;;1529580;75;1123;-68
2022/11/24 06:32:59;;;;;;;;;;;21.60;68.70;;;;;;1531898;76;1955;-68
2022/11/24 06:35:01;;;;;;;;;;;21.70;68.20;;;;;;1532271;76;744;-68
2022/11/24 06:37:03;;;;;;;;;;;21.80;67.70;;;;;;1529026;75;711;-68
2022/11/24 06:39:05;;;;;;;;;;;21.90;67.50;;;;;;1537150;75;691;-69
2022/11/24 06:41:07;;;;;;;;;;;21.90;67.20;;;;;;1542759;76;729;-68
2022/11/24 06:43:09;;;;;;;;;;;21.90;67.00;;;;;;1540880;76;1943;-68
2022/11/24 06:45:11;;;;;;;;;;;21.90;66.90;;;;;;1541280;75;736;-68
2022/11/24 06:47:13;;;;;;;;;;;22.00;66.70;;;;;;1545916;75;703;-69
2022/11/24 06:49:15;;;;;;;;;;;22.00;66.50;;;;;;1538368;75;1162;-68
2022/11/24 06:51:17;;;;;;;;;;;21.90;66.50;;;;;;1546152;75;702;-67
2022/11/24 06:53:19;;;;;;;;;;;21.90;66.50;;;;;;1536753;75;748;-67
2022/11/24 06:55:21;;;;;;;;;;;21.90;66.70;;;;;;1527793;76;729;-67
2022/11/24 06:57:23;;;;;;;;;;;21.90;66.50;;;;;;1541981;76;718;-68
2022/11/24 06:59:25;;;;;;;;;;;21.90;66.60;;;;;;1534066;75;1138;-67
2022/11/24 07:01:27;;;;;;;;;;;21.90;66.50;;;;;;1539007;76;698;-67
2022/11/24 07:03:29;;;;;;;;;;;21.80;66.50;;;;;;1545176;75;1925;-69
2022/11/24 07:05:31;;;;;;;;;;;21.80;66.70;;;;;;1547339;76;663;-67
2022/11/24 07:07:33;;;;;;;;;;;21.80;66.60;;;;;;1534373;75;714;-68
2022/11/24 07:09:35;;;;;;;;;;;21.80;66.50;;;;;;1547696;76;1173;-69
2022/11/24 07:11:37;;;;;;;;;;;21.80;66.60;;;;;;1533028;75;1543;-68
2022/11/24 07:13:39;;;;;;;;;;;21.80;66.60;;;;;;1544524;75;794;-68
2022/11/24 07:15:40;;;;;;;;;;;21.80;66.60;;;;;;1545538;75;768;-68
2022/11/24 07:17:42;;;;;;;;;;;21.80;66.60;;;;;;1538981;76;708;-67
2022/11/24 07:19:44;;;;;;;;;;;21.80;66.60;;;;;;1534563;72;226578;-66
2022/11/24 07:21:46;;;;;;;;;;;21.70;66.60;;;;;;1558300;74;540;-67
2022/11/24 07:23:48;;;;;;;;;;;21.70;66.80;;;;;;1577250;74;1943;-67
2022/11/24 07:25:50;;;;;;;;;;;21.80;66.60;;;;;;1574860;74;707;-67
2022/11/24 07:27:58;;;;;;;;;;;21.70;66.70;;;;;;1566340;74;659;-67
2022/11/24 07:30:00;;;;;;;;;;;21.70;66.80;;;;;;1574971;74;1197;-67
2022/11/24 07:32:02;;;;;;;;;;;21.70;66.70;;;;;;1598562;73;685;-63
2022/11/24 07:34:05;;;;;;;;;;;21.70;66.70;;;;;;1598495;73;726;-66
2022/11/24 07:36:07;;;;;;;;;;;21.70;66.80;;;;;;1596525;73;634;-67
2022/11/24 07:38:09;;;;;;;;;;;21.70;66.80;;;;;;1597290;73;640;-67
2022/11/24 07:40:11;;;;;;;;;;;21.70;66.70;;;;;;1593145;73;1116;-67
2022/11/24 07:42:13;;;;;;;;;;;21.70;66.70;;;;;;1591375;73;691;-67
2022/11/24 07:44:14;;;;;;;;;;;21.70;66.70;;;;;;1587327;73;1939;-66
2022/11/24 07:46:17;;;;;;;;;;;21.70;66.70;;;;;;1587466;73;768;-67
2022/11/24 07:48:19;;;;;;;;;;;21.70;66.70;;;;;;1591888;73;665;-66
2022/11/24 07:50:21;;;;;;;;;;;21.70;66.70;;;;;;1583141;73;1130;-66
2022/11/24 07:52:25;;;;;;;;;;;21.70;66.60;;;;;;1596168;73;664;-65
2022/11/24 07:54:26;;;;;;;;;;;21.70;66.60;;;;;;1586245;73;1147;-66
2022/11/24 07:56:28;;;;;;;;;;;21.70;66.70;;;;;;1594227;73;740;-67
2022/11/24 07:58:31;;;;;;;;;;;21.70;66.50;;;;;;1587110;73;749;-67
2022/11/24 08:00:33;;;;;;;;;;;21.90;66.50;;;;;;1587802;73;1149;-67
2022/11/24 08:02:35;;;;;;;;;;;21.80;66.20;;;;;;1590559;73;730;-67
2022/11/24 08:04:37;;;;;;;;;;;21.80;66.10;;;;;;1597413;73;708;-65
2022/11/24 08:06:39;;;;;;;;;;;21.80;66.20;;;;;;1586148;73;668;-66
2022/11/24 08:08:40;;;;;;;;;;;21.80;66.30;;;;;;1585216;73;1495;-65
2022/11/24 08:10:42;;;;;;;;;;;21.80;66.20;;;;;;1587329;73;1132;-67
2022/11/24 08:12:44;;;;;;;;;;;21.90;66.20;;;;;;1580025;73;585;-67
2022/11/24 08:14:47;;;;;;;;;;;21.90;66.00;;;;;;1587340;73;545;-66
2022/11/24 08:16:49;;;;;;;;;;;21.90;65.90;;;;;;1590211;73;685;-68
2022/11/24 08:18:52;;;;;;;;;;;21.90;65.70;;;;;;1597389;73;687;-66
2022/11/24 08:20:56;;;;;;;;;;;21.90;65.50;;;;;;1590398;73;1533;-65
2022/11/24 08:22:58;;;;;;;;;;;21.90;65.30;;;;;;1592972;73;1928;-67
2022/11/24 08:25:00;;;;;;;;;;;22.00;65.30;;;;;;1589862;73;685;-66
2022/11/24 08:27:02;;;;;;;;;;;22.00;65.20;;;;;;1593307;73;689;-68
2022/11/24 08:29:03;;;;;;;;;;;22.00;65.10;;;;;;1595083;73;729;-67
2022/11/24 08:31:06;;;;;;;;;;;22.00;65.00;;;;;;1589637;73;1148;-67
2022/11/24 08:33:08;;;;;;;;;;;22.00;64.80;;;;;;1605078;73;729;-67
2022/11/24 08:35:11;;;;;;;;;;;22.00;64.70;;;;;;1587080;73;679;-66
2022/11/24 08:37:12;;;;;;;;;;;22.00;64.70;;;;;;1586956;73;687;-67
2022/11/24 08:39:14;;;;;;;;;;;22.10;64.80;;;;;;1594251;74;669;-65
2022/11/24 08:41:16;;;;;;;;;;;22.10;64.70;;;;;;1611771;73;1100;-66
2022/11/24 08:43:18;;;;;;;;;;;22.10;64.60;;;;;;1605343;74;1910;-66
2022/11/24 08:45:21;;;;;;;;;;;22.10;64.50;;;;;;1599888;73;725;-66
2022/11/24 08:47:23;;;;;;;;;;;22.10;64.50;;;;;;1590156;73;735;-66
2022/11/24 08:49:24;;;;;;;;;;;22.00;64.40;;;;;;1604719;73;707;-67
2022/11/24 08:51:27;;;;;;;;;;;22.10;64.50;;;;;;1590907;73;1131;-66
2022/11/24 08:53:28;;;;;;;;;;;22.10;64.50;;;;;;1604273;73;688;-67
2022/11/24 08:55:30;;;;;;;;;;;22.10;64.40;;;;;;1597252;73;708;-66
2022/11/24 08:57:32;;;;;;;;;;;22.10;64.30;;;;;;1602544;73;684;-67
2022/11/24 08:59:34;;;;;;;;;;;22.10;64.30;;;;;;1602778;73;1118;-66
2022/11/24 09:01:37;;;;;;;;;;;22.00;64.20;;;;;;1610004;73;714;-66
2022/11/24 09:03:39;;;;;;;;;;;22.10;64.30;;;;;;1598031;73;1928;-66
2022/11/24 09:05:41;;;;;;;;;;;22.00;64.20;;;;;;1602330;73;668;-66
2022/11/24 09:07:43;;;;;;;;;;;22.00;64.20;;;;;;1604198;74;655;-66
2022/11/24 09:09:44;;;;;;;;;;;22.00;64.10;;;;;;1593436;73;1121;-65
2022/11/24 09:11:46;;;;;;;;;;;22.00;64.10;;;;;;1584674;73;651;-66
2022/11/24 09:13:48;;;;;;;;;;;22.00;64.10;;;;;;1594683;73;672;-64
2022/11/24 09:15:50;;;;;;;;;;;22.00;64.10;;;;;;1597463;73;713;-66
2022/11/24 09:17:52;;;;;;;;;;;22.00;64.00;;;;;;1605860;73;753;-65
2022/11/24 09:19:54;;;;;;;;;;;22.00;64.00;;;;;;1596226;73;1171;-66
2022/11/24 09:21:56;;;;;;;;;;;22.00;64.00;;;;;;1596767;73;809;-67
2022/11/24 09:23:58;;;;;;;;;;;22.00;64.00;;;;;;1588188;73;1900;-67
2022/11/24 09:26:06;;;;;;;;;;;22.10;64.10;;;;;;1593373;73;746;-66
2022/11/24 09:28:08;;;;;;;;;;;22.10;64.00;;;;;;1586908;73;663;-68
2022/11/24 09:30:10;;;;;;;;;;;22.00;64.00;;;;;;1593769;73;1161;-67
2022/11/24 09:32:12;;;;;;;;;;;22.10;64.00;;;;;;1597421;73;709;-68
2022/11/24 09:34:14;;;;;;;;;;;22.00;64.00;;;;;;1591608;73;694;-67
2022/11/24 09:36:16;;;;;;;;;;;22.00;63.90;;;;;;1595178;73;669;-67
2022/11/24 09:38:19;;;;;;;;;;;22.00;63.90;;;;;;1591911;73;689;-68
2022/11/24 09:40:20;;;;;;;;;;;22.00;63.90;;;;;;1594893;73;1135;-70
2022/11/24 09:42:40;;;;;;;;;;;22.00;63.90;;;;;;1589659;73;689;-67
2022/11/24 09:44:52;;;;;;;;;;;22.00;63.90;;;;;;1604465;73;1925;-68
2022/11/24 09:47:11;;;;;;;;;;;22.00;63.90;;;;;;1595129;73;731;-66
2022/11/24 09:49:15;;;;;;;;;;;22.00;63.90;;;;;;1593984;73;1619;-67
2022/11/24 09:51:17;;;;;;;;;;;22.00;63.90;;;;;;1594776;73;1157;-67
2022/11/24 09:53:20;;;;;;;;;;;22.00;63.90;;;;;;1587597;73;711;-68
2022/11/24 09:55:24;;;;;;;;;;;22.00;63.80;;;;;;1611603;73;1823;-68
2022/11/24 09:57:26;;;;;;;;;;;22.00;63.80;;;;;;1585664;73;948;-67
2022/11/24 09:59:27;;;;;;;;;;;22.00;63.90;;;;;;1590062;73;744;-66
2022/11/24 10:01:30;;;;;;;;;;;22.00;63.80;;;;;;1595946;73;1425;-68
2022/11/24 10:03:33;;;;;;;;;;;22.00;63.70;;;;;;1591099;73;1924;-67
2022/11/24 10:05:35;;;;;;;;;;;22.00;63.70;;;;;;1593495;73;1060;-68
2022/11/24 10:07:39;;;;;;;;;;;22.10;63.80;;;;;;1598442;74;745;-68
2022/11/24 10:09:59;;;;;;;;;;;22.00;63.70;;;;;;1584934;73;1811;-68
2022/11/24 10:12:02;;;;;;;;;;;22.00;63.70;;;;;;1581365;73;655;-68
2022/11/24 10:14:09;;;;;;;;;;;22.00;63.70;;;;;;1576613;73;1052;-65
2022/11/24 10:16:21;;;;;;;;;;;22.00;63.80;;;;;;1592980;73;1962;-67
2022/11/24 10:18:25;;;;;;;;;;;22.00;63.80;;;;;;1590502;73;727;-67
2022/11/24 10:20:28;;;;;;;;;;;22.00;63.80;;;;;;1588090;73;1157;-67
2022/11/24 10:22:34;;;;;;;;;;;22.00;63.70;;;;;;1601313;73;1645;-68
2022/11/24 10:24:41;;;;;;;;;;;22.00;63.80;;;;;;1591649;73;1956;-67
2022/11/24 10:26:47;;;;;;;;;;;22.00;63.90;;;;;;1602622;73;1716;-67
2022/11/24 10:28:54;;;;;;;;;;;21.90;63.90;;;;;;1592241;74;904;-67
2022/11/24 10:30:57;;;;;;;;;;;21.90;63.80;;;;;;1588082;73;1564;-66
2022/11/24 10:33:07;;;;;;;;;;;22.00;63.90;;;;;;1591028;73;750;-68
2022/11/24 10:35:14;;;;;;;;;;;22.00;63.90;;;;;;1597323;73;701;-68
2022/11/24 10:37:30;;;;;;;;;;;21.90;63.80;;;;;;1597107;73;989;-67
2022/11/24 10:39:33;;;;;;;;;;;22.00;63.80;;;;;;1588329;73;1128;-67
2022/11/24 10:41:37;;;;;;;;;;;22.00;63.90;;;;;;1586901;73;776;-67
2022/11/24 10:43:39;;;;;;;;;;;22.00;63.90;;;;;;1594225;73;1916;-68
2022/11/24 10:45:41;;;;;;;;;;;22.00;63.90;;;;;;1593614;73;710;-68
2022/11/24 10:47:43;;;;;;;;;;;21.90;64.00;;;;;;1599139;73;647;-67
2022/11/24 10:49:46;;;;;;;;;;;22.00;63.90;;;;;;1591936;73;1121;-68
2022/11/24 10:52:04;;;;;;;;;;;22.00;63.90;;;;;;1600252;73;603;-66
2022/11/24 10:54:08;;;;;;;;;;;22.00;63.80;;;;;;1601069;73;705;-67
2022/11/24 10:56:10;;;;;;;;;;;21.90;64.00;;;;;;1584494;73;1454;-68
2022/11/24 10:58:16;;;;;;;;;;;22.00;64.00;;;;;;1590294;73;665;-68
2022/11/24 11:00:19;;;;;;;;;;;22.00;64.00;;;;;;1598170;73;1123;-67
2022/11/24 11:02:26;;;;;;;;;;;21.90;64.00;;;;;;1587244;73;621;-66
2022/11/24 11:04:29;;;;;;;;;;;21.90;64.00;;;;;;1579876;73;1931;-66
2022/11/24 11:06:31;;;;;;;;;;;21.90;64.00;;;;;;1585027;73;1015;-67
2022/11/24 11:08:33;;;;;;;;;;;22.00;63.90;;;;;;1591400;73;736;-67
2022/11/24 11:10:35;;;;;;;;;;;22.00;63.80;;;;;;1594746;73;1133;-67
2022/11/24 11:12:36;;;;;;;;;;;22.00;63.70;;;;;;1588092;73;722;-67
2022/11/24 11:14:38;;;;;;;;;;;22.00;63.70;;;;;;1589228;73;720;-70
2022/11/24 11:16:41;;;;;;;;;;;22.00;63.70;;;;;;1589220;74;539;-70
2022/11/24 11:18:43;;;;;;;;;;;22.00;63.70;;;;;;1586872;73;751;-69
2022/11/24 11:20:52;;;;;;;;;;;22.00;63.70;;;;;;1570839;74;1355;-66
2022/11/24 11:22:55;;;;;;;;;;;22.00;63.70;;;;;;1596536;74;815;-68
2022/11/24 11:25:07;;;;;;;;;;;21.90;63.80;;;;;;1583297;73;1925;-66
2022/11/24 11:27:23;;;;;;;;;;;21.90;63.70;;;;;;1593742;73;660;-67
2022/11/24 11:29:26;;;;;;;;;;;21.90;63.80;;;;;;1586193;73;659;-68
2022/11/24 11:31:28;;;;;;;;;;;21.90;63.90;;;;;;1587418;73;1157;-68
2022/11/24 11:33:30;;;;;;;;;;;21.90;63.90;;;;;;1588210;73;611;-68
2022/11/24 11:35:32;;;;;;;;;;;21.90;63.90;;;;;;1587976;73;669;-68
2022/11/24 11:37:34;;;;;;;;;;;21.80;63.70;;;;;;1592755;73;699;-67
2022/11/24 11:39:36;;;;;;;;;;;21.90;63.70;;;;;;1602067;73;1132;-68
2022/11/24 11:41:40;;;;;;;;;;;21.90;63.80;;;;;;1603583;73;708;-67
2022/11/24 11:43:42;;;;;;;;;;;21.90;63.80;;;;;;1595828;73;706;-66
2022/11/24 11:45:45;;;;;;;;;;;21.90;63.70;;;;;;1591176;73;1941;-69
2022/11/24 11:48:04;;;;;;;;;;;21.90;63.80;;;;;;1587100;73;672;-68
2022/11/24 11:50:14;;;;;;;;;;;21.90;63.80;;;;;;1584780;73;1139;-68
2022/11/24 11:52:20;;;;;;;;;;;21.90;63.80;;;;;;1583095;73;1927;-67
2022/11/24 11:54:26;;;;;;;;;;;21.90;63.80;;;;;;1578015;73;1026;-67
2022/11/24 11:56:29;;;;;;;;;;;21.90;63.80;;;;;;1580146;73;965;-67
2022/11/24 11:58:39;;;;;;;;;;;21.90;63.70;;;;;;1587639;73;745;-67
2022/11/24 12:00:42;;;;;;;;;;;21.90;63.70;;;;;;1593681;73;1149;-67
2022/11/24 12:02:54;;;;;;;;;;;21.90;63.70;;;;;;1592054;73;1071;-67
2022/11/24 12:04:57;;;;;;;;;;;21.90;63.60;;;;;;1591956;73;1948;-67
2022/11/24 12:07:17;;;;;;;;;;;21.90;63.60;;;;;;1588498;73;619;-68
2022/11/24 12:09:38;;;;;;;;;;;21.90;63.60;;;;;;1581742;73;686;-68
2022/11/24 12:11:42;;;;;;;;;;;21.90;63.60;;;;;;1583356;73;628;-68
2022/11/24 12:14:01;;;;;;;;;;;21.90;63.60;;;;;;1582853;73;647;-68
2022/11/24 12:16:14;;;;;;;;;;;21.90;63.70;;;;;;1581723;73;682;-68